Stateline, NV

8:44 PM PDT on September 01, 2014 (GMT -0700)
Kingsbury | Change Station
CLOSE
Current Station
Personal Weather Station
Location: Stateline, NV
Elevation: 6493 ft
Nearby Weather Stations

Elev 6493 ft 38.97 °N, 119.93 °W | Updated 24 minutes ago

Clear
Clear
72.7 °F
Feels Like 76 °F
N
-
Wind Variable Wind from North

Today
High -- | Low -- °F
--% Chance of Precip.
Yesterday
High -- | Low -- °F
Precip. -- in
6:28 AM 7:29 PM
Waxing Crescent, 47% visible
Pressure 29.97 in
Visibility 10.0 miles
Clouds Clear
Heat Index 76 °F
Dew Point 39 °F
Humidity 29%
Rainfall -999.00 in
Snow Depth Not available.
UV 0 out of 12
Pollen 8.10 out of 12
Air Quality Not available.
Flu Activity Not available.
METAR KTVL 020253Z AUTO 00000KT 10SM CLR 19/04 A3011 RMK AO2 SLP147 T01940039 53004

More Conditions Fewer Conditions

Pressure 29.97 in
Visibility 10.0 miles
Clouds Clear
Heat Index 76 °F
Dew Point 39 °F
Humidity 29%
Rainfall -999.00 in
Snow Depth Not available.
UV 0 out of 12
Pollen 8.10 out of 12
Air Quality Not available.
Flu Activity Not available.
METAR KTVL 020253Z AUTO 00000KT 10SM CLR 19/04 A3011 RMK AO2 SLP147 T01940039 53004

More Conditions Fewer Conditions

10-Day Weather Forecast

Almanac

Astronomy

Sep. 01, 2014 Rise Set
Actual Time 6:28 AM PDT 7:29 PM PDT
Civil Twilight 6:01 AM PDT 7:57 PM PDT
Nautical Twilight 5:28 AM PDT 8:29 PM PDT
Astronomical Twilight 4:54 AM PDT 9:03 PM PDT
Moon 1:15 PM PDT (9/1) 11:38 PM PDT (9/1)
Length of Visible Light 13h 55m
Length of Day
13h 01m
Tomorrow will be 2m 26s shorter.
Waxing Crescent, 47% of the Moon is Illuminated
Today
Waxing Crescent
Sep 2
First Quarter
Sep 8
Full
Sep 15
Last Quarter
Sep 24
New

Today's Extremes

State Highs State Lows

Community

WunderPhotos

Upload Photos

1,749,557 photos uploaded!

WunderBlogs® & News

Nearby

Snow Depth

Station Depth Elevation
Big Creek Summit 0 in 8700 ft
Lewis Peak 0 in 7400 ft
Sheldon 0 in 5860 ft
Lamance Creek 0 in 6000 ft
Diamond Peak 0 in 8000 ft

Earthquake Activity

City Distance Mag. Time & Date
Gilroy, California 160 miles 3.5 9:10 AM PDT
2014-09-01
Minimum magnitude displayed is 2.5.

Coastal Water Temperatures

Place Temperature
No Stations Reporting

Nearby Weather Stations